sensor_id;sensor_type;location;lat;lon;timestamp;temperature;humidity
72126;SHT31;59999;51.676;22.650;2023-05-14T00:02:18;7.80;82.37
72126;SHT31;59999;51.676;22.650;2023-05-14T00:04:44;7.79;82.36
72126;SHT31;59999;51.676;22.650;2023-05-14T00:07:10;7.73;82.29
72126;SHT31;59999;51.676;22.650;2023-05-14T00:09:36;7.73;82.82
72126;SHT31;59999;51.676;22.650;2023-05-14T00:12:02;7.67;83.27
72126;SHT31;59999;51.676;22.650;2023-05-14T00:14:28;7.67;83.22
72126;SHT31;59999;51.676;22.650;2023-05-14T00:16:54;7.63;83.00
72126;SHT31;59999;51.676;22.650;2023-05-14T00:19:21;7.59;82.91
72126;SHT31;59999;51.676;22.650;2023-05-14T00:21:47;7.56;82.97
72126;SHT31;59999;51.676;22.650;2023-05-14T00:24:13;7.49;83.10
72126;SHT31;59999;51.676;22.650;2023-05-14T00:26:39;7.45;83.25
72126;SHT31;59999;51.676;22.650;2023-05-14T00:29:05;7.38;82.85
72126;SHT31;59999;51.676;22.650;2023-05-14T00:31:31;7.28;83.10
72126;SHT31;59999;51.676;22.650;2023-05-14T00:33:57;7.21;83.44
72126;SHT31;59999;51.676;22.650;2023-05-14T00:36:23;7.14;83.66
72126;SHT31;59999;51.676;22.650;2023-05-14T00:38:49;7.09;84.00
72126;SHT31;59999;51.676;22.650;2023-05-14T00:41:15;7.05;84.33
72126;SHT31;59999;51.676;22.650;2023-05-14T00:43:41;7.07;84.28
72126;SHT31;59999;51.676;22.650;2023-05-14T00:46:07;7.05;84.39
72126;SHT31;59999;51.676;22.650;2023-05-14T00:48:33;7.07;84.79
72126;SHT31;59999;51.676;22.650;2023-05-14T00:51:00;7.09;84.99
72126;SHT31;59999;51.676;22.650;2023-05-14T00:53:26;7.12;84.99
72126;SHT31;59999;51.676;22.650;2023-05-14T00:55:53;7.11;84.83
72126;SHT31;59999;51.676;22.650;2023-05-14T00:58:19;7.09;84.82
72126;SHT31;59999;51.676;22.650;2023-05-14T01:00:45;7.09;84.75
72126;SHT31;59999;51.676;22.650;2023-05-14T01:03:11;7.05;84.54
72126;SHT31;59999;51.676;22.650;2023-05-14T01:11:25;6.88;84.76
72126;SHT31;59999;51.676;22.650;2023-05-14T01:14:04;6.84;84.84
72126;SHT31;59999;51.676;22.650;2023-05-14T01:16:32;6.84;84.96
72126;SHT31;59999;51.676;22.650;2023-05-14T01:19:00;6.79;85.52
72126;SHT31;59999;51.676;22.650;2023-05-14T01:21:36;6.73;85.67
72126;SHT31;59999;51.676;22.650;2023-05-14T01:24:03;6.75;85.87
72126;SHT31;59999;51.676;22.650;2023-05-14T01:26:29;6.77;85.81
72126;SHT31;59999;51.676;22.650;2023-05-14T01:29:14;6.76;85.79
72126;SHT31;59999;51.676;22.650;2023-05-14T01:31:43;6.79;85.97
72126;SHT31;59999;51.676;22.650;2023-05-14T01:34:11;6.76;85.98
72126;SHT31;59999;51.676;22.650;2023-05-14T01:36:39;6.81;87.26
72126;SHT31;59999;51.676;22.650;2023-05-14T01:39:06;6.84;87.49
72126;SHT31;59999;51.676;22.650;2023-05-14T01:41:37;6.91;87.25
72126;SHT31;59999;51.676;22.650;2023-05-14T01:44:04;6.88;87.32
72126;SHT31;59999;51.676;22.650;2023-05-14T01:46:31;6.91;87.26
72126;SHT31;59999;51.676;22.650;2023-05-14T01:48:57;6.90;87.09
72126;SHT31;59999;51.676;22.650;2023-05-14T01:51:23;6.91;87.11
72126;SHT31;59999;51.676;22.650;2023-05-14T01:53:50;6.87;87.13
72126;SHT31;59999;51.676;22.650;2023-05-14T01:56:17;6.84;86.36
72126;SHT31;59999;51.676;22.650;2023-05-14T01:58:43;6.75;85.98
72126;SHT31;59999;51.676;22.650;2023-05-14T02:01:09;6.66;86.13
72126;SHT31;59999;51.676;22.650;2023-05-14T02:03:35;6.59;86.45
72126;SHT31;59999;51.676;22.650;2023-05-14T02:06:00;6.50;86.48
72126;SHT31;59999;51.676;22.650;2023-05-14T02:08:26;6.48;86.55
72126;SHT31;59999;51.676;22.650;2023-05-14T02:10:52;6.43;86.93
72126;SHT31;59999;51.676;22.650;2023-05-14T02:13:18;6.39;87.03
72126;SHT31;59999;51.676;22.650;2023-05-14T02:15:44;6.36;86.94
72126;SHT31;59999;51.676;22.650;2023-05-14T02:18:10;6.29;86.86
72126;SHT31;59999;51.676;22.650;2023-05-14T02:20:36;6.25;86.99
72126;SHT31;59999;51.676;22.650;2023-05-14T02:23:03;6.18;87.18
72126;SHT31;59999;51.676;22.650;2023-05-14T02:25:28;6.14;87.39
72126;SHT31;59999;51.676;22.650;2023-05-14T02:27:54;6.15;87.84
72126;SHT31;59999;51.676;22.650;2023-05-14T02:30:20;6.15;87.97
72126;SHT31;59999;51.676;22.650;2023-05-14T02:32:46;6.17;88.19
72126;SHT31;59999;51.676;22.650;2023-05-14T02:35:12;6.18;88.86
72126;SHT31;59999;51.676;22.650;2023-05-14T02:37:38;6.25;89.07
72126;SHT31;59999;51.676;22.650;2023-05-14T02:40:04;6.28;89.61
72126;SHT31;59999;51.676;22.650;2023-05-14T02:42:31;6.28;89.95
72126;SHT31;59999;51.676;22.650;2023-05-14T02:44:57;6.28;90.28
72126;SHT31;59999;51.676;22.650;2023-05-14T02:47:23;6.32;90.53
72126;SHT31;59999;51.676;22.650;2023-05-14T02:49:48;6.33;90.51
72126;SHT31;59999;51.676;22.650;2023-05-14T02:52:15;6.35;90.44
72126;SHT31;59999;51.676;22.650;2023-05-14T02:54:41;6.39;90.73
72126;SHT31;59999;51.676;22.650;2023-05-14T02:57:07;6.42;90.97
72126;SHT31;59999;51.676;22.650;2023-05-14T02:59:32;6.48;90.98
72126;SHT31;59999;51.676;22.650;2023-05-14T03:01:59;6.49;90.80
72126;SHT31;59999;51.676;22.650;2023-05-14T03:04:24;6.49;90.28
72126;SHT31;59999;51.676;22.650;2023-05-14T03:06:51;6.45;90.01
72126;SHT31;59999;51.676;22.650;2023-05-14T03:09:16;6.43;89.87
72126;SHT31;59999;51.676;22.650;2023-05-14T03:11:42;6.43;89.85
72126;SHT31;59999;51.676;22.650;2023-05-14T03:14:08;6.40;89.95
72126;SHT31;59999;51.676;22.650;2023-05-14T03:16:34;6.36;89.54
72126;SHT31;59999;51.676;22.650;2023-05-14T03:19:00;6.33;89.49
72126;SHT31;59999;51.676;22.650;2023-05-14T03:21:26;6.30;89.55
72126;SHT31;59999;51.676;22.650;2023-05-14T03:23:52;6.30;89.47
72126;SHT31;59999;51.676;22.650;2023-05-14T03:26:18;6.29;89.67
72126;SHT31;59999;51.676;22.650;2023-05-14T03:28:44;6.29;89.71
72126;SHT31;59999;51.676;22.650;2023-05-14T03:31:10;6.28;89.46
72126;SHT31;59999;51.676;22.650;2023-05-14T03:33:36;6.28;89.63
72126;SHT31;59999;51.676;22.650;2023-05-14T03:36:02;6.30;89.86
72126;SHT31;59999;51.676;22.650;2023-05-14T03:38:28;6.32;90.03
72126;SHT31;59999;51.676;22.650;2023-05-14T03:40:54;6.35;90.11
72126;SHT31;59999;51.676;22.650;2023-05-14T03:43:20;6.45;90.29
72126;SHT31;59999;51.676;22.650;2023-05-14T03:45:46;6.49;90.34
72126;SHT31;59999;51.676;22.650;2023-05-14T03:48:12;6.59;90.36
72126;SHT31;59999;51.676;22.650;2023-05-14T03:50:38;6.65;90.13
72126;SHT31;59999;51.676;22.650;2023-05-14T03:53:04;6.72;89.94
72126;SHT31;59999;51.676;22.650;2023-05-14T03:55:30;6.76;89.99
72126;SHT31;59999;51.676;22.650;2023-05-14T03:57:56;6.84;90.14
72126;SHT31;59999;51.676;22.650;2023-05-14T04:00:22;6.94;90.28
72126;SHT31;59999;51.676;22.650;2023-05-14T04:02:48;7.04;90.21
72126;SHT31;59999;51.676;22.650;2023-05-14T04:05:14;7.15;90.18
72126;SHT31;59999;51.676;22.650;2023-05-14T04:07:40;7.25;90.07
72126;SHT31;59999;51.676;22.650;2023-05-14T04:10:06;7.39;89.93
72126;SHT31;59999;51.676;22.650;2023-05-14T04:12:32;7.46;89.62
72126;SHT31;59999;51.676;22.650;2023-05-14T04:14:58;7.56;89.37
72126;SHT31;59999;51.676;22.650;2023-05-14T04:17:24;7.70;89.54
72126;SHT31;59999;51.676;22.650;2023-05-14T04:19:50;7.80;89.45
72126;SHT31;59999;51.676;22.650;2023-05-14T04:22:16;7.94;89.08
72126;SHT31;59999;51.676;22.650;2023-05-14T04:24:42;8.10;89.24
72126;SHT31;59999;51.676;22.650;2023-05-14T04:27:08;8.21;89.20
72126;SHT31;59999;51.676;22.650;2023-05-14T04:29:34;8.37;89.29
72126;SHT31;59999;51.676;22.650;2023-05-14T04:32:00;8.55;89.14
72126;SHT31;59999;51.676;22.650;2023-05-14T04:34:26;8.73;88.73
72126;SHT31;59999;51.676;22.650;2023-05-14T04:36:52;8.93;88.42
72126;SHT31;59999;51.676;22.650;2023-05-14T04:39:18;9.13;88.25
72126;SHT31;59999;51.676;22.650;2023-05-14T04:41:44;9.31;87.71
72126;SHT31;59999;51.676;22.650;2023-05-14T04:44:11;9.48;87.36
72126;SHT31;59999;51.676;22.650;2023-05-14T04:46:37;9.69;86.77
72126;SHT31;59999;51.676;22.650;2023-05-14T04:49:04;9.88;85.88
72126;SHT31;59999;51.676;22.650;2023-05-14T04:51:30;10.03;84.70
72126;SHT31;59999;51.676;22.650;2023-05-14T04:53:56;10.19;84.01
72126;SHT31;59999;51.676;22.650;2023-05-14T04:56:22;10.36;84.09
72126;SHT31;59999;51.676;22.650;2023-05-14T04:58:48;10.51;83.47
72126;SHT31;59999;51.676;22.650;2023-05-14T05:01:14;10.72;82.81
72126;SHT31;59999;51.676;22.650;2023-05-14T05:03:40;10.89;81.91
72126;SHT31;59999;51.676;22.650;2023-05-14T05:06:06;11.05;81.02
72126;SHT31;59999;51.676;22.650;2023-05-14T05:08:32;11.19;80.56
72126;SHT31;59999;51.676;22.650;2023-05-14T05:10:58;11.40;80.35
72126;SHT31;59999;51.676;22.650;2023-05-14T05:13:24;11.60;79.40
72126;SHT31;59999;51.676;22.650;2023-05-14T05:15:50;11.78;78.34
72126;SHT31;59999;51.676;22.650;2023-05-14T05:18:16;11.98;77.50
72126;SHT31;59999;51.676;22.650;2023-05-14T05:20:42;12.17;76.38
72126;SHT31;59999;51.676;22.650;2023-05-14T05:23:08;12.35;75.85
72126;SHT31;59999;51.676;22.650;2023-05-14T05:25:33;12.52;75.65
72126;SHT31;59999;51.676;22.650;2023-05-14T05:28:00;12.72;74.98
72126;SHT31;59999;51.676;22.650;2023-05-14T05:30:25;12.91;73.72
72126;SHT31;59999;51.676;22.650;2023-05-14T05:32:52;13.10;72.90
72126;SHT31;59999;51.676;22.650;2023-05-14T05:35:17;13.27;71.94
72126;SHT31;59999;51.676;22.650;2023-05-14T05:37:43;13.42;71.42
72126;SHT31;59999;51.676;22.650;2023-05-14T05:40:10;13.61;70.92
72126;SHT31;59999;51.676;22.650;2023-05-14T05:42:36;13.78;70.88
72126;SHT31;59999;51.676;22.650;2023-05-14T05:45:02;13.95;70.27
72126;SHT31;59999;51.676;22.650;2023-05-14T05:47:28;14.09;68.76
72126;SHT31;59999;51.676;22.650;2023-05-14T05:49:54;14.24;68.09
72126;SHT31;59999;51.676;22.650;2023-05-14T05:52:20;14.37;67.80
72126;SHT31;59999;51.676;22.650;2023-05-14T05:54:46;14.54;67.89
72126;SHT31;59999;51.676;22.650;2023-05-14T05:57:12;14.65;67.78
72126;SHT31;59999;51.676;22.650;2023-05-14T05:59:38;14.78;67.34
72126;SHT31;59999;51.676;22.650;2023-05-14T06:02:04;14.85;66.23
72126;SHT31;59999;51.676;22.650;2023-05-14T06:04:31;14.93;66.23
72126;SHT31;59999;51.676;22.650;2023-05-14T06:06:57;15.03;65.57
72126;SHT31;59999;51.676;22.650;2023-05-14T06:09:23;15.19;64.95
72126;SHT31;59999;51.676;22.650;2023-05-14T06:11:49;15.34;64.41
72126;SHT31;59999;51.676;22.650;2023-05-14T06:14:14;15.53;63.92
72126;SHT31;59999;51.676;22.650;2023-05-14T06:16:40;15.68;63.93
72126;SHT31;59999;51.676;22.650;2023-05-14T06:19:06;15.88;63.21
72126;SHT31;59999;51.676;22.650;2023-05-14T06:21:33;16.06;62.73
72126;SHT31;59999;51.676;22.650;2023-05-14T06:23:59;16.22;62.58
72126;SHT31;59999;51.676;22.650;2023-05-14T06:26:25;16.40;60.58
72126;SHT31;59999;51.676;22.650;2023-05-14T06:28:51;16.53;60.47
72126;SHT31;59999;51.676;22.650;2023-05-14T06:31:17;16.68;60.29
72126;SHT31;59999;51.676;22.650;2023-05-14T06:33:43;16.84;58.91
72126;SHT31;59999;51.676;22.650;2023-05-14T06:36:10;17.00;57.07
72126;SHT31;59999;51.676;22.650;2023-05-14T06:38:36;17.12;59.63
72126;SHT31;59999;51.676;22.650;2023-05-14T06:41:02;17.26;59.09
72126;SHT31;59999;51.676;22.650;2023-05-14T06:43:28;17.35;58.03
72126;SHT31;59999;51.676;22.650;2023-05-14T06:45:54;17.45;57.64
72126;SHT31;59999;51.676;22.650;2023-05-14T06:48:20;17.61;57.25
72126;SHT31;59999;51.676;22.650;2023-05-14T06:50:47;17.70;55.81
72126;SHT31;59999;51.676;22.650;2023-05-14T06:53:14;17.79;57.31
72126;SHT31;59999;51.676;22.650;2023-05-14T06:55:40;17.83;54.33
72126;SHT31;59999;51.676;22.650;2023-05-14T06:58:06;17.90;55.76
72126;SHT31;59999;51.676;22.650;2023-05-14T07:00:33;18.01;53.96
72126;SHT31;59999;51.676;22.650;2023-05-14T07:02:58;18.14;54.80
72126;SHT31;59999;51.676;22.650;2023-05-14T07:05:25;18.28;54.64
72126;SHT31;59999;51.676;22.650;2023-05-14T07:07:51;18.37;53.06
72126;SHT31;59999;51.676;22.650;2023-05-14T07:10:17;18.45;52.54
72126;SHT31;59999;51.676;22.650;2023-05-14T07:12:43;18.56;51.84
72126;SHT31;59999;51.676;22.650;2023-05-14T07:15:09;18.69;52.48
72126;SHT31;59999;51.676;22.650;2023-05-14T07:17:36;18.73;51.87
72126;SHT31;59999;51.676;22.650;2023-05-14T07:20:02;18.75;50.83
72126;SHT31;59999;51.676;22.650;2023-05-14T07:22:28;18.83;51.07
72126;SHT31;59999;51.676;22.650;2023-05-14T07:24:54;18.96;48.13
72126;SHT31;59999;51.676;22.650;2023-05-14T07:27:20;19.03;49.06
72126;SHT31;59999;51.676;22.650;2023-05-14T07:29:46;19.09;48.49
72126;SHT31;59999;51.676;22.650;2023-05-14T07:32:12;19.11;50.63
72126;SHT31;59999;51.676;22.650;2023-05-14T07:34:38;19.19;49.80
72126;SHT31;59999;51.676;22.650;2023-05-14T07:37:04;19.26;45.75
72126;SHT31;59999;51.676;22.650;2023-05-14T07:39:30;19.34;45.40
72126;SHT31;59999;51.676;22.650;2023-05-14T07:41:55;19.46;44.84
72126;SHT31;59999;51.676;22.650;2023-05-14T07:44:22;19.58;45.68
72126;SHT31;59999;51.676;22.650;2023-05-14T07:46:47;19.67;46.01
72126;SHT31;59999;51.676;22.650;2023-05-14T07:49:14;19.77;45.21
72126;SHT31;59999;51.676;22.650;2023-05-14T07:51:39;19.85;43.45
72126;SHT31;59999;51.676;22.650;2023-05-14T07:54:06;19.90;42.08
72126;SHT31;59999;51.676;22.650;2023-05-14T07:56:31;19.98;41.25
72126;SHT31;59999;51.676;22.650;2023-05-14T07:58:57;20.02;41.87
72126;SHT31;59999;51.676;22.650;2023-05-14T08:01:23;20.09;41.60
72126;SHT31;59999;51.676;22.650;2023-05-14T08:03:49;20.12;41.52
72126;SHT31;59999;51.676;22.650;2023-05-14T08:06:15;20.13;41.50
72126;SHT31;59999;51.676;22.650;2023-05-14T08:08:41;20.19;42.12
72126;SHT31;59999;51.676;22.650;2023-05-14T08:11:07;20.23;43.28
72126;SHT31;59999;51.676;22.650;2023-05-14T08:13:33;20.33;43.93
72126;SHT31;59999;51.676;22.650;2023-05-14T08:15:59;20.36;42.29
72126;SHT31;59999;51.676;22.650;2023-05-14T08:18:26;20.43;43.12
72126;SHT31;59999;51.676;22.650;2023-05-14T08:20:51;20.51;42.28
72126;SHT31;59999;51.676;22.650;2023-05-14T08:23:17;20.57;42.01
72126;SHT31;59999;51.676;22.650;2023-05-14T08:25:43;20.60;41.51
72126;SHT31;59999;51.676;22.650;2023-05-14T08:28:09;20.64;42.93
72126;SHT31;59999;51.676;22.650;2023-05-14T08:30:35;20.68;41.14
72126;SHT31;59999;51.676;22.650;2023-05-14T08:33:01;20.73;41.25
72126;SHT31;59999;51.676;22.650;2023-05-14T08:35:27;20.73;41.22
72126;SHT31;59999;51.676;22.650;2023-05-14T08:37:53;20.80;42.29
72126;SHT31;59999;51.676;22.650;2023-05-14T08:40:21;20.91;42.09
72126;SHT31;59999;51.676;22.650;2023-05-14T08:42:47;20.95;41.70
72126;SHT31;59999;51.676;22.650;2023-05-14T08:45:19;21.05;43.67
72126;SHT31;59999;51.676;22.650;2023-05-14T08:47:49;21.15;43.21
72126;SHT31;59999;51.676;22.650;2023-05-14T08:50:16;21.23;43.26
72126;SHT31;59999;51.676;22.650;2023-05-14T08:52:43;21.29;43.35
72126;SHT31;59999;51.676;22.650;2023-05-14T08:55:11;21.38;40.54
72126;SHT31;59999;51.676;22.650;2023-05-14T08:57:37;21.39;41.97
72126;SHT31;59999;51.676;22.650;2023-05-14T09:00:04;21.43;38.95
72126;SHT31;59999;51.676;22.650;2023-05-14T09:02:34;21.46;40.51
72126;SHT31;59999;51.676;22.650;2023-05-14T09:05:01;21.50;40.46
72126;SHT31;59999;51.676;22.650;2023-05-14T09:07:28;21.53;40.71
72126;SHT31;59999;51.676;22.650;2023-05-14T09:09:54;21.62;41.85
72126;SHT31;59999;51.676;22.650;2023-05-14T09:12:21;21.70;40.61
72126;SHT31;59999;51.676;22.650;2023-05-14T09:14:48;21.74;40.20
72126;SHT31;59999;51.676;22.650;2023-05-14T09:17:15;21.77;38.27
72126;SHT31;59999;51.676;22.650;2023-05-14T09:19:42;21.80;37.23
72126;SHT31;59999;51.676;22.650;2023-05-14T09:22:10;21.81;38.22
72126;SHT31;59999;51.676;22.650;2023-05-14T09:24:36;21.80;37.40
72126;SHT31;59999;51.676;22.650;2023-05-14T09:27:04;21.74;36.49
72126;SHT31;59999;51.676;22.650;2023-05-14T09:29:31;21.74;36.14
72126;SHT31;59999;51.676;22.650;2023-05-14T09:31:58;21.80;37.95
72126;SHT31;59999;51.676;22.650;2023-05-14T09:34:28;21.86;37.19
72126;SHT31;59999;51.676;22.650;2023-05-14T09:36:56;21.86;36.18
72126;SHT31;59999;51.676;22.650;2023-05-14T09:39:23;21.87;36.68
72126;SHT31;59999;51.676;22.650;2023-05-14T09:41:50;21.91;36.93
72126;SHT31;59999;51.676;22.650;2023-05-14T09:44:17;21.97;36.95
72126;SHT31;59999;51.676;22.650;2023-05-14T09:46:44;22.04;36.60
72126;SHT31;59999;51.676;22.650;2023-05-14T09:49:10;22.12;37.64
72126;SHT31;59999;51.676;22.650;2023-05-14T09:51:37;22.22;37.01
72126;SHT31;59999;51.676;22.650;2023-05-14T09:54:04;22.24;35.34
72126;SHT31;59999;51.676;22.650;2023-05-14T09:56:34;22.31;36.63
72126;SHT31;59999;51.676;22.650;2023-05-14T09:59:01;22.41;37.72
72126;SHT31;59999;51.676;22.650;2023-05-14T10:01:28;22.53;38.19
72126;SHT31;59999;51.676;22.650;2023-05-14T10:03:55;22.55;35.67
72126;SHT31;59999;51.676;22.650;2023-05-14T10:06:27;22.58;35.44
72126;SHT31;59999;51.676;22.650;2023-05-14T10:08:55;22.59;35.21
72126;SHT31;59999;51.676;22.650;2023-05-14T10:11:29;22.60;35.26
72126;SHT31;59999;51.676;22.650;2023-05-14T10:14:08;22.60;37.28
72126;SHT31;59999;51.676;22.650;2023-05-14T10:16:40;22.65;36.11
72126;SHT31;59999;51.676;22.650;2023-05-14T10:19:11;22.69;35.60
72126;SHT31;59999;51.676;22.650;2023-05-14T10:21:39;22.73;35.25
72126;SHT31;59999;51.676;22.650;2023-05-14T10:24:06;22.76;34.89
72126;SHT31;59999;51.676;22.650;2023-05-14T10:26:35;22.79;35.85
72126;SHT31;59999;51.676;22.650;2023-05-14T10:29:08;22.86;37.17
72126;SHT31;59999;51.676;22.650;2023-05-14T10:31:53;22.80;34.86
72126;SHT31;59999;51.676;22.650;2023-05-14T10:34:39;22.75;35.73
72126;SHT31;59999;51.676;22.650;2023-05-14T10:37:23;22.79;35.56
72126;SHT31;59999;51.676;22.650;2023-05-14T10:42:26;22.89;34.85
72126;SHT31;59999;51.676;22.650;2023-05-14T10:44:59;22.96;39.68
72126;SHT31;59999;51.676;22.650;2023-05-14T10:47:30;23.02;36.59
72126;SHT31;59999;51.676;22.650;2023-05-14T10:49:58;23.08;36.27
72126;SHT31;59999;51.676;22.650;2023-05-14T10:52:25;23.08;34.32
72126;SHT31;59999;51.676;22.650;2023-05-14T10:54:56;23.17;35.26
72126;SHT31;59999;51.676;22.650;2023-05-14T10:57:24;23.23;35.16
72126;SHT31;59999;51.676;22.650;2023-05-14T10:59:52;23.35;36.43
72126;SHT31;59999;51.676;22.650;2023-05-14T11:02:20;23.44;35.13
72126;SHT31;59999;51.676;22.650;2023-05-14T11:05:06;23.50;36.53
72126;SHT31;59999;51.676;22.650;2023-05-14T11:07:37;23.18;34.25
72126;SHT31;59999;51.676;22.650;2023-05-14T11:10:08;22.83;36.38
72126;SHT31;59999;51.676;22.650;2023-05-14T11:12:36;23.03;39.11
72126;SHT31;59999;51.676;22.650;2023-05-14T11:15:05;23.26;36.33
72126;SHT31;59999;51.676;22.650;2023-05-14T11:17:34;23.44;37.68
72126;SHT31;59999;51.676;22.650;2023-05-14T11:20:01;23.48;35.35
72126;SHT31;59999;51.676;22.650;2023-05-14T11:22:27;23.43;33.67
72126;SHT31;59999;51.676;22.650;2023-05-14T11:24:53;23.40;34.05
72126;SHT31;59999;51.676;22.650;2023-05-14T11:27:21;23.40;34.37
72126;SHT31;59999;51.676;22.650;2023-05-14T11:29:48;23.40;35.02
72126;SHT31;59999;51.676;22.650;2023-05-14T11:32:15;23.33;36.09
72126;SHT31;59999;51.676;22.650;2023-05-14T11:34:43;23.40;34.29
72126;SHT31;59999;51.676;22.650;2023-05-14T11:37:10;23.45;34.94
72126;SHT31;59999;51.676;22.650;2023-05-14T11:39:38;23.40;34.39
72126;SHT31;59999;51.676;22.650;2023-05-14T11:42:08;23.38;33.94
72126;SHT31;59999;51.676;22.650;2023-05-14T11:44:37;23.41;35.10
72126;SHT31;59999;51.676;22.650;2023-05-14T11:47:04;23.44;35.63
72126;SHT31;59999;51.676;22.650;2023-05-14T11:49:30;23.44;32.91
72126;SHT31;59999;51.676;22.650;2023-05-14T11:52:04;23.45;33.67
72126;SHT31;59999;51.676;22.650;2023-05-14T11:54:33;23.41;33.06
72126;SHT31;59999;51.676;22.650;2023-05-14T11:57:06;23.37;33.75
72126;SHT31;59999;51.676;22.650;2023-05-14T11:59:32;23.31;33.78
72126;SHT31;59999;51.676;22.650;2023-05-14T12:02:00;23.35;34.09
72126;SHT31;59999;51.676;22.650;2023-05-14T12:04:27;23.48;34.21
72126;SHT31;59999;51.676;22.650;2023-05-14T12:06:57;23.61;35.32
72126;SHT31;59999;51.676;22.650;2023-05-14T12:09:23;23.72;34.27
72126;SHT31;59999;51.676;22.650;2023-05-14T12:11:50;23.93;33.55
72126;SHT31;59999;51.676;22.650;2023-05-14T12:14:20;24.10;35.34
72126;SHT31;59999;51.676;22.650;2023-05-14T12:16:47;24.19;32.51
72126;SHT31;59999;51.676;22.650;2023-05-14T12:19:14;24.17;31.83
72126;SHT31;59999;51.676;22.650;2023-05-14T12:21:45;24.26;33.56
72126;SHT31;59999;51.676;22.650;2023-05-14T12:24:14;24.19;32.04
72126;SHT31;59999;51.676;22.650;2023-05-14T12:26:48;24.20;32.64
72126;SHT31;59999;51.676;22.650;2023-05-14T12:29:15;24.24;32.97
72126;SHT31;59999;51.676;22.650;2023-05-14T12:31:46;24.32;33.89
72126;SHT31;59999;51.676;22.650;2023-05-14T12:34:12;24.22;30.80
72126;SHT31;59999;51.676;22.650;2023-05-14T12:36:38;24.12;33.00
72126;SHT31;59999;51.676;22.650;2023-05-14T12:39:04;23.99;32.89
72126;SHT31;59999;51.676;22.650;2023-05-14T12:41:31;24.02;32.84
72126;SHT31;59999;51.676;22.650;2023-05-14T12:43:58;24.06;33.98
72126;SHT31;59999;51.676;22.650;2023-05-14T12:46:26;24.14;33.44
72126;SHT31;59999;51.676;22.650;2023-05-14T12:48:55;24.32;34.98
72126;SHT31;59999;51.676;22.650;2023-05-14T12:51:22;24.30;33.24
72126;SHT31;59999;51.676;22.650;2023-05-14T12:53:48;24.14;32.02
72126;SHT31;59999;51.676;22.650;2023-05-14T12:56:14;24.19;32.30
72126;SHT31;59999;51.676;22.650;2023-05-14T12:58:40;24.12;32.62
72126;SHT31;59999;51.676;22.650;2023-05-14T13:01:06;24.02;32.24
72126;SHT31;59999;51.676;22.650;2023-05-14T13:03:33;23.62;33.88
72126;SHT31;59999;51.676;22.650;2023-05-14T13:05:59;23.64;32.78
72126;SHT31;59999;51.676;22.650;2023-05-14T13:08:25;23.50;32.59
72126;SHT31;59999;51.676;22.650;2023-05-14T13:10:52;23.55;33.27
72126;SHT31;59999;51.676;22.650;2023-05-14T13:13:18;23.64;32.30
72126;SHT31;59999;51.676;22.650;2023-05-14T13:15:46;23.78;32.23
72126;SHT31;59999;51.676;22.650;2023-05-14T13:18:12;23.90;32.86
72126;SHT31;59999;51.676;22.650;2023-05-14T13:20:39;24.06;34.69
72126;SHT31;59999;51.676;22.650;2023-05-14T13:23:05;24.05;33.58
72126;SHT31;59999;51.676;22.650;2023-05-14T13:25:31;24.09;32.29
72126;SHT31;59999;51.676;22.650;2023-05-14T13:27:57;23.93;33.21
72126;SHT31;59999;51.676;22.650;2023-05-14T13:30:23;23.96;35.42
72126;SHT31;59999;51.676;22.650;2023-05-14T13:32:49;23.81;35.06
72126;SHT31;59999;51.676;22.650;2023-05-14T13:35:16;23.55;36.58
72126;SHT31;59999;51.676;22.650;2023-05-14T13:37:42;23.35;34.46
72126;SHT31;59999;51.676;22.650;2023-05-14T13:40:09;23.48;34.67
72126;SHT31;59999;51.676;22.650;2023-05-14T13:42:35;23.79;33.49
72126;SHT31;59999;51.676;22.650;2023-05-14T13:45:02;24.10;31.85
72126;SHT31;59999;51.676;22.650;2023-05-14T13:47:28;24.39;32.54
72126;SHT31;59999;51.676;22.650;2023-05-14T13:49:54;24.60;30.01
72126;SHT31;59999;51.676;22.650;2023-05-14T13:52:21;24.65;32.59
72126;SHT31;59999;51.676;22.650;2023-05-14T13:54:47;24.82;30.22
72126;SHT31;59999;51.676;22.650;2023-05-14T13:57:13;25.08;31.09
72126;SHT31;59999;51.676;22.650;2023-05-14T13:59:40;25.49;32.77
72126;SHT31;59999;51.676;22.650;2023-05-14T14:02:06;25.71;33.44
72126;SHT31;59999;51.676;22.650;2023-05-14T14:04:33;25.86;31.39
72126;SHT31;59999;51.676;22.650;2023-05-14T14:06:58;26.02;31.50
72126;SHT31;59999;51.676;22.650;2023-05-14T14:09:25;26.14;31.33
72126;SHT31;59999;51.676;22.650;2023-05-14T14:11:51;26.18;29.20
72126;SHT31;59999;51.676;22.650;2023-05-14T14:14:17;26.39;29.75
72126;SHT31;59999;51.676;22.650;2023-05-14T14:16:43;26.28;30.21
72126;SHT31;59999;51.676;22.650;2023-05-14T14:19:09;26.53;30.87
72126;SHT31;59999;51.676;22.650;2023-05-14T14:21:35;26.51;29.17
72126;SHT31;59999;51.676;22.650;2023-05-14T14:24:04;26.49;29.48
72126;SHT31;59999;51.676;22.650;2023-05-14T14:26:30;26.51;27.58
72126;SHT31;59999;51.676;22.650;2023-05-14T14:28:57;26.51;27.54
72126;SHT31;59999;51.676;22.650;2023-05-14T14:31:23;26.71;27.84
72126;SHT31;59999;51.676;22.650;2023-05-14T14:33:49;26.86;27.09
72126;SHT31;59999;51.676;22.650;2023-05-14T14:36:15;27.13;26.58
72126;SHT31;59999;51.676;22.650;2023-05-14T14:38:41;27.40;26.41
72126;SHT31;59999;51.676;22.650;2023-05-14T14:41:08;27.45;28.48
72126;SHT31;59999;51.676;22.650;2023-05-14T14:43:36;27.58;27.00
72126;SHT31;59999;51.676;22.650;2023-05-14T14:46:02;27.57;27.16
72126;SHT31;59999;51.676;22.650;2023-05-14T14:48:33;27.10;28.67
72126;SHT31;59999;51.676;22.650;2023-05-14T14:51:06;27.17;27.70
72126;SHT31;59999;51.676;22.650;2023-05-14T14:53:34;27.29;28.55
72126;SHT31;59999;51.676;22.650;2023-05-14T14:56:00;27.07;28.57
72126;SHT31;59999;51.676;22.650;2023-05-14T14:58:27;26.57;29.61
72126;SHT31;59999;51.676;22.650;2023-05-14T15:00:54;26.75;29.79
72126;SHT31;59999;51.676;22.650;2023-05-14T15:03:20;27.31;28.08
72126;SHT31;59999;51.676;22.650;2023-05-14T15:05:47;28.02;27.42
72126;SHT31;59999;51.676;22.650;2023-05-14T15:08:14;28.69;26.13
72126;SHT31;59999;51.676;22.650;2023-05-14T15:10:40;29.15;26.37
72126;SHT31;59999;51.676;22.650;2023-05-14T15:13:07;29.46;23.52
72126;SHT31;59999;51.676;22.650;2023-05-14T15:15:34;29.45;24.69
72126;SHT31;59999;51.676;22.650;2023-05-14T15:18:01;29.27;24.78
72126;SHT31;59999;51.676;22.650;2023-05-14T15:20:27;29.19;24.36
72126;SHT31;59999;51.676;22.650;2023-05-14T15:22:53;29.04;23.86
72126;SHT31;59999;51.676;22.650;2023-05-14T15:25:20;29.09;24.85
72126;SHT31;59999;51.676;22.650;2023-05-14T15:27:47;29.06;24.38